sensor_id;sensor_type;location;lat;lon;timestamp;P1;durP1;ratioP1;P2;durP2;ratioP2
41721;SDS011;27407;24.142;-110.310;2024-03-02T00:00:29;12.70;;;3.65;;
41721;SDS011;27407;24.142;-110.310;2024-03-02T00:02:56;77.55;;;6.32;;
41721;SDS011;27407;24.142;-110.310;2024-03-02T00:05:23;2.13;;;0.75;;
41721;SDS011;27407;24.142;-110.310;2024-03-02T00:07:53;19.50;;;2.22;;
41721;SDS011;27407;24.142;-110.310;2024-03-02T00:10:42;16.08;;;1.38;;
41721;SDS011;27407;24.142;-110.310;2024-03-02T00:13:08;7.63;;;2.60;;
41721;SDS011;27407;24.142;-110.310;2024-03-02T00:18:12;31.00;;;3.83;;
41721;SDS011;27407;24.142;-110.310;2024-03-02T00:20:59;17.45;;;3.17;;
41721;SDS011;27407;24.142;-110.310;2024-03-02T00:23:29;26.63;;;4.65;;
41721;SDS011;27407;24.142;-110.310;2024-03-02T00:25:56;7.20;;;1.20;;
41721;SDS011;27407;24.142;-110.310;2024-03-02T00:28:24;27.90;;;2.72;;
41721;SDS011;27407;24.142;-110.310;2024-03-02T00:31:04;21.00;;;2.00;;
41721;SDS011;27407;24.142;-110.310;2024-03-02T00:33:36;26.73;;;2.88;;
41721;SDS011;27407;24.142;-110.310;2024-03-02T00:36:16;14.70;;;1.23;;
41721;SDS011;27407;24.142;-110.310;2024-03-02T00:38:50;8.88;;;1.23;;
41721;SDS011;27407;24.142;-110.310;2024-03-02T00:41:31;3.83;;;0.57;;
41721;SDS011;27407;24.142;-110.310;2024-03-02T00:46:44;13.70;;;1.23;;
41721;SDS011;27407;24.142;-110.310;2024-03-02T00:51:37;22.30;;;1.90;;
41721;SDS011;27407;24.142;-110.310;2024-03-02T00:54:05;39.17;;;2.83;;
41721;SDS011;27407;24.142;-110.310;2024-03-02T00:56:34;17.55;;;2.10;;
41721;SDS011;27407;24.142;-110.310;2024-03-02T00:59:00;20.25;;;2.15;;
41721;SDS011;27407;24.142;-110.310;2024-03-02T01:01:27;38.97;;;3.97;;
41721;SDS011;27407;24.142;-110.310;2024-03-02T01:03:54;81.57;;;7.82;;
41721;SDS011;27407;24.142;-110.310;2024-03-02T01:06:20;101.63;;;9.45;;
41721;SDS011;27407;24.142;-110.310;2024-03-02T01:08:47;19.17;;;1.80;;
41721;SDS011;27407;24.142;-110.310;2024-03-02T01:11:16;47.85;;;3.80;;
41721;SDS011;27407;24.142;-110.310;2024-03-02T01:13:49;19.67;;;2.08;;
41721;SDS011;27407;24.142;-110.310;2024-03-02T01:16:17;48.58;;;3.83;;
41721;SDS011;27407;24.142;-110.310;2024-03-02T01:18:43;34.65;;;3.83;;
41721;SDS011;27407;24.142;-110.310;2024-03-02T01:21:10;79.18;;;5.95;;
41721;SDS011;27407;24.142;-110.310;2024-03-02T01:23:37;30.25;;;2.35;;
41721;SDS011;27407;24.142;-110.310;2024-03-02T01:26:04;29.80;;;3.22;;
41721;SDS011;27407;24.142;-110.310;2024-03-02T01:28:31;102.82;;;7.93;;
41721;SDS011;27407;24.142;-110.310;2024-03-02T01:30:57;31.70;;;3.85;;
41721;SDS011;27407;24.142;-110.310;2024-03-02T01:33:24;256.17;;;19.73;;
41721;SDS011;27407;24.142;-110.310;2024-03-02T01:35:50;138.68;;;9.00;;
41721;SDS011;27407;24.142;-110.310;2024-03-02T01:38:17;27.15;;;1.83;;
41721;SDS011;27407;24.142;-110.310;2024-03-02T01:40:44;76.25;;;11.85;;
41721;SDS011;27407;24.142;-110.310;2024-03-02T01:43:11;29.35;;;2.55;;
41721;SDS011;27407;24.142;-110.310;2024-03-02T01:45:38;131.40;;;8.32;;
41721;SDS011;27407;24.142;-110.310;2024-03-02T01:48:05;27.55;;;2.20;;
41721;SDS011;27407;24.142;-110.310;2024-03-02T01:50:32;53.92;;;5.15;;
41721;SDS011;27407;24.142;-110.310;2024-03-02T01:52:59;75.70;;;5.75;;
41721;SDS011;27407;24.142;-110.310;2024-03-02T01:55:28;105.35;;;8.25;;
41721;SDS011;27407;24.142;-110.310;2024-03-02T01:57:55;39.42;;;3.28;;
41721;SDS011;27407;24.142;-110.310;2024-03-02T02:00:23;65.53;;;3.78;;
41721;SDS011;27407;24.142;-110.310;2024-03-02T02:02:51;51.33;;;3.38;;
41721;SDS011;27407;24.142;-110.310;2024-03-02T02:05:18;38.25;;;2.63;;
41721;SDS011;27407;24.142;-110.310;2024-03-02T02:07:45;25.67;;;2.67;;
41721;SDS011;27407;24.142;-110.310;2024-03-02T02:10:12;28.70;;;2.53;;
41721;SDS011;27407;24.142;-110.310;2024-03-02T02:12:39;117.57;;;9.07;;
41721;SDS011;27407;24.142;-110.310;2024-03-02T02:15:27;29.05;;;4.53;;
41721;SDS011;27407;24.142;-110.310;2024-03-02T02:17:54;60.22;;;5.75;;
41721;SDS011;27407;24.142;-110.310;2024-03-02T02:20:21;66.77;;;5.23;;
41721;SDS011;27407;24.142;-110.310;2024-03-02T02:22:58;56.83;;;5.18;;
41721;SDS011;27407;24.142;-110.310;2024-03-02T02:25:33;63.87;;;5.13;;
41721;SDS011;27407;24.142;-110.310;2024-03-02T02:27:59;70.82;;;5.88;;
41721;SDS011;27407;24.142;-110.310;2024-03-02T02:30:26;77.13;;;6.38;;
41721;SDS011;27407;24.142;-110.310;2024-03-02T02:32:54;82.25;;;8.00;;
41721;SDS011;27407;24.142;-110.310;2024-03-02T02:35:21;106.80;;;7.97;;
41721;SDS011;27407;24.142;-110.310;2024-03-02T02:37:49;27.42;;;3.55;;
41721;SDS011;27407;24.142;-110.310;2024-03-02T02:40:17;136.07;;;9.70;;
41721;SDS011;27407;24.142;-110.310;2024-03-02T02:42:46;138.73;;;9.60;;
41721;SDS011;27407;24.142;-110.310;2024-03-02T02:45:13;53.03;;;4.13;;
41721;SDS011;27407;24.142;-110.310;2024-03-02T02:47:43;292.80;;;18.43;;
41721;SDS011;27407;24.142;-110.310;2024-03-02T02:50:11;89.13;;;8.30;;
41721;SDS011;27407;24.142;-110.310;2024-03-02T02:52:38;81.10;;;10.43;;
41721;SDS011;27407;24.142;-110.310;2024-03-02T02:55:09;70.67;;;10.93;;
41721;SDS011;27407;24.142;-110.310;2024-03-02T02:57:38;77.03;;;5.20;;
41721;SDS011;27407;24.142;-110.310;2024-03-02T03:00:10;40.95;;;3.95;;
41721;SDS011;27407;24.142;-110.310;2024-03-02T03:02:44;37.80;;;4.37;;
41721;SDS011;27407;24.142;-110.310;2024-03-02T03:05:13;27.77;;;4.03;;
41721;SDS011;27407;24.142;-110.310;2024-03-02T03:07:40;31.50;;;3.17;;
41721;SDS011;27407;24.142;-110.310;2024-03-02T03:10:09;22.17;;;2.53;;
41721;SDS011;27407;24.142;-110.310;2024-03-02T03:12:35;41.03;;;3.60;;
41721;SDS011;27407;24.142;-110.310;2024-03-02T03:15:03;55.33;;;5.53;;
41721;SDS011;27407;24.142;-110.310;2024-03-02T03:17:30;36.43;;;3.97;;
41721;SDS011;27407;24.142;-110.310;2024-03-02T03:19:56;47.60;;;3.80;;
41721;SDS011;27407;24.142;-110.310;2024-03-02T03:22:23;32.80;;;2.80;;
41721;SDS011;27407;24.142;-110.310;2024-03-02T03:24:49;34.50;;;2.87;;
41721;SDS011;27407;24.142;-110.310;2024-03-02T03:27:16;25.53;;;2.23;;
41721;SDS011;27407;24.142;-110.310;2024-03-02T03:29:43;24.73;;;2.33;;
41721;SDS011;27407;24.142;-110.310;2024-03-02T03:32:10;38.67;;;2.90;;
41721;SDS011;27407;24.142;-110.310;2024-03-02T03:34:36;21.73;;;2.40;;
41721;SDS011;27407;24.142;-110.310;2024-03-02T03:37:03;19.90;;;1.80;;
41721;SDS011;27407;24.142;-110.310;2024-03-02T03:39:30;33.30;;;3.13;;
41721;SDS011;27407;24.142;-110.310;2024-03-02T03:41:56;60.67;;;4.27;;
41721;SDS011;27407;24.142;-110.310;2024-03-02T03:44:23;67.83;;;7.07;;
41721;SDS011;27407;24.142;-110.310;2024-03-02T03:46:49;41.07;;;3.37;;
41721;SDS011;27407;24.142;-110.310;2024-03-02T03:49:16;38.93;;;4.57;;
41721;SDS011;27407;24.142;-110.310;2024-03-02T03:51:42;29.17;;;2.83;;
41721;SDS011;27407;24.142;-110.310;2024-03-02T03:54:09;35.63;;;3.77;;
41721;SDS011;27407;24.142;-110.310;2024-03-02T03:56:36;29.77;;;3.67;;
41721;SDS011;27407;24.142;-110.310;2024-03-02T03:59:03;58.13;;;4.80;;
41721;SDS011;27407;24.142;-110.310;2024-03-02T04:01:30;25.93;;;3.57;;
41721;SDS011;27407;24.142;-110.310;2024-03-02T04:03:57;21.53;;;3.73;;
41721;SDS011;27407;24.142;-110.310;2024-03-02T04:06:24;29.07;;;3.27;;
41721;SDS011;27407;24.142;-110.310;2024-03-02T04:08:50;34.07;;;3.43;;
41721;SDS011;27407;24.142;-110.310;2024-03-02T04:11:17;20.03;;;2.43;;
41721;SDS011;27407;24.142;-110.310;2024-03-02T04:13:43;18.13;;;2.33;;
41721;SDS011;27407;24.142;-110.310;2024-03-02T04:16:10;26.27;;;2.53;;
41721;SDS011;27407;24.142;-110.310;2024-03-02T04:18:37;23.57;;;3.00;;
41721;SDS011;27407;24.142;-110.310;2024-03-02T04:21:05;18.63;;;2.77;;
41721;SDS011;27407;24.142;-110.310;2024-03-02T04:23:31;29.67;;;2.33;;
41721;SDS011;27407;24.142;-110.310;2024-03-02T04:25:58;15.90;;;2.47;;
41721;SDS011;27407;24.142;-110.310;2024-03-02T04:28:25;19.97;;;2.90;;
41721;SDS011;27407;24.142;-110.310;2024-03-02T04:30:51;28.30;;;3.17;;
41721;SDS011;27407;24.142;-110.310;2024-03-02T04:33:18;14.77;;;1.90;;
41721;SDS011;27407;24.142;-110.310;2024-03-02T04:35:44;15.60;;;1.93;;
41721;SDS011;27407;24.142;-110.310;2024-03-02T04:38:11;14.20;;;2.07;;
41721;SDS011;27407;24.142;-110.310;2024-03-02T04:40:38;30.73;;;2.57;;
41721;SDS011;27407;24.142;-110.310;2024-03-02T04:43:04;18.07;;;2.40;;
41721;SDS011;27407;24.142;-110.310;2024-03-02T04:45:31;21.90;;;2.27;;
41721;SDS011;27407;24.142;-110.310;2024-03-02T04:47:58;25.67;;;2.80;;
41721;SDS011;27407;24.142;-110.310;2024-03-02T04:50:24;18.57;;;2.77;;
41721;SDS011;27407;24.142;-110.310;2024-03-02T04:52:51;68.17;;;5.60;;
41721;SDS011;27407;24.142;-110.310;2024-03-02T04:55:17;29.93;;;2.70;;
41721;SDS011;27407;24.142;-110.310;2024-03-02T04:57:44;28.03;;;3.00;;
41721;SDS011;27407;24.142;-110.310;2024-03-02T05:00:11;20.27;;;2.87;;
41721;SDS011;27407;24.142;-110.310;2024-03-02T05:02:38;27.83;;;3.57;;
41721;SDS011;27407;24.142;-110.310;2024-03-02T05:05:05;16.47;;;2.00;;
41721;SDS011;27407;24.142;-110.310;2024-03-02T05:07:31;20.50;;;2.53;;
41721;SDS011;27407;24.142;-110.310;2024-03-02T05:09:58;20.93;;;2.33;;
41721;SDS011;27407;24.142;-110.310;2024-03-02T05:12:25;11.30;;;3.33;;
41721;SDS011;27407;24.142;-110.310;2024-03-02T05:15:20;6.13;;;2.63;;
41721;SDS011;27407;24.142;-110.310;2024-03-02T05:17:47;11.60;;;2.97;;
41721;SDS011;27407;24.142;-110.310;2024-03-02T05:20:13;18.30;;;1.70;;
41721;SDS011;27407;24.142;-110.310;2024-03-02T05:22:40;28.90;;;3.03;;
41721;SDS011;27407;24.142;-110.310;2024-03-02T05:25:06;29.37;;;3.80;;
41721;SDS011;27407;24.142;-110.310;2024-03-02T05:27:35;23.00;;;4.17;;
41721;SDS011;27407;24.142;-110.310;2024-03-02T05:30:01;28.60;;;4.03;;
41721;SDS011;27407;24.142;-110.310;2024-03-02T05:32:29;22.10;;;2.33;;
41721;SDS011;27407;24.142;-110.310;2024-03-02T05:34:55;15.10;;;2.33;;
41721;SDS011;27407;24.142;-110.310;2024-03-02T05:37:22;19.30;;;2.37;;
41721;SDS011;27407;24.142;-110.310;2024-03-02T05:39:48;16.57;;;2.20;;
41721;SDS011;27407;24.142;-110.310;2024-03-02T05:42:15;14.27;;;1.80;;
41721;SDS011;27407;24.142;-110.310;2024-03-02T05:44:44;21.23;;;2.27;;
41721;SDS011;27407;24.142;-110.310;2024-03-02T05:47:11;6.47;;;1.17;;
41721;SDS011;27407;24.142;-110.310;2024-03-02T05:49:38;10.93;;;1.60;;
41721;SDS011;27407;24.142;-110.310;2024-03-02T05:52:04;24.13;;;2.67;;
41721;SDS011;27407;24.142;-110.310;2024-03-02T05:54:32;19.20;;;2.03;;
41721;SDS011;27407;24.142;-110.310;2024-03-02T05:56:58;21.10;;;2.10;;
41721;SDS011;27407;24.142;-110.310;2024-03-02T05:59:42;10.30;;;1.27;;
41721;SDS011;27407;24.142;-110.310;2024-03-02T06:02:09;11.50;;;2.03;;
41721;SDS011;27407;24.142;-110.310;2024-03-02T06:04:35;12.03;;;2.10;;
41721;SDS011;27407;24.142;-110.310;2024-03-02T06:07:02;11.67;;;1.73;;
41721;SDS011;27407;24.142;-110.310;2024-03-02T06:09:29;7.17;;;1.00;;
41721;SDS011;27407;24.142;-110.310;2024-03-02T06:11:55;6.17;;;1.53;;
41721;SDS011;27407;24.142;-110.310;2024-03-02T06:14:22;16.63;;;1.80;;
41721;SDS011;27407;24.142;-110.310;2024-03-02T06:16:48;13.83;;;2.07;;
41721;SDS011;27407;24.142;-110.310;2024-03-02T06:19:15;12.57;;;1.60;;
41721;SDS011;27407;24.142;-110.310;2024-03-02T06:21:41;18.60;;;2.13;;
41721;SDS011;27407;24.142;-110.310;2024-03-02T06:24:08;22.07;;;2.23;;
41721;SDS011;27407;24.142;-110.310;2024-03-02T06:26:35;18.23;;;2.13;;
41721;SDS011;27407;24.142;-110.310;2024-03-02T06:29:01;12.30;;;1.93;;
41721;SDS011;27407;24.142;-110.310;2024-03-02T06:31:28;14.77;;;1.77;;
41721;SDS011;27407;24.142;-110.310;2024-03-02T06:33:55;12.00;;;1.90;;
41721;SDS011;27407;24.142;-110.310;2024-03-02T06:36:22;13.90;;;1.60;;
41721;SDS011;27407;24.142;-110.310;2024-03-02T06:38:48;8.97;;;1.23;;
41721;SDS011;27407;24.142;-110.310;2024-03-02T06:41:15;12.60;;;1.53;;
41721;SDS011;27407;24.142;-110.310;2024-03-02T06:43:41;9.43;;;1.30;;
41721;SDS011;27407;24.142;-110.310;2024-03-02T06:46:08;7.57;;;1.17;;
41721;SDS011;27407;24.142;-110.310;2024-03-02T06:48:35;15.53;;;1.10;;
41721;SDS011;27407;24.142;-110.310;2024-03-02T06:51:01;6.30;;;1.53;;
41721;SDS011;27407;24.142;-110.310;2024-03-02T06:53:28;7.60;;;1.47;;
41721;SDS011;27407;24.142;-110.310;2024-03-02T06:55:55;14.87;;;1.87;;
41721;SDS011;27407;24.142;-110.310;2024-03-02T06:58:21;6.40;;;1.00;;
41721;SDS011;27407;24.142;-110.310;2024-03-02T07:00:48;13.90;;;1.43;;
41721;SDS011;27407;24.142;-110.310;2024-03-02T07:03:16;6.73;;;1.30;;
41721;SDS011;27407;24.142;-110.310;2024-03-02T07:05:47;5.07;;;1.23;;
41721;SDS011;27407;24.142;-110.310;2024-03-02T07:08:14;7.33;;;1.30;;
41721;SDS011;27407;24.142;-110.310;2024-03-02T07:10:41;16.93;;;1.77;;
41721;SDS011;27407;24.142;-110.310;2024-03-02T07:13:08;35.80;;;2.80;;
41721;SDS011;27407;24.142;-110.310;2024-03-02T07:15:38;19.87;;;1.90;;
41721;SDS011;27407;24.142;-110.310;2024-03-02T07:18:11;8.27;;;1.20;;
41721;SDS011;27407;24.142;-110.310;2024-03-02T07:20:40;8.87;;;1.63;;
41721;SDS011;27407;24.142;-110.310;2024-03-02T07:23:08;6.30;;;0.70;;
41721;SDS011;27407;24.142;-110.310;2024-03-02T07:25:36;11.87;;;1.80;;
41721;SDS011;27407;24.142;-110.310;2024-03-02T07:28:04;10.00;;;1.60;;
41721;SDS011;27407;24.142;-110.310;2024-03-02T07:30:33;15.60;;;1.57;;
41721;SDS011;27407;24.142;-110.310;2024-03-02T07:33:21;7.13;;;0.80;;
41721;SDS011;27407;24.142;-110.310;2024-03-02T07:35:50;5.97;;;1.30;;
41721;SDS011;27407;24.142;-110.310;2024-03-02T07:38:17;7.97;;;1.40;;
41721;SDS011;27407;24.142;-110.310;2024-03-02T07:40:44;8.17;;;1.07;;
41721;SDS011;27407;24.142;-110.310;2024-03-02T07:43:14;14.37;;;0.80;;
41721;SDS011;27407;24.142;-110.310;2024-03-02T07:45:40;14.30;;;1.30;;
41721;SDS011;27407;24.142;-110.310;2024-03-02T07:48:07;11.83;;;1.00;;
41721;SDS011;27407;24.142;-110.310;2024-03-02T07:50:34;3.00;;;0.90;;
41721;SDS011;27407;24.142;-110.310;2024-03-02T07:53:07;8.93;;;0.80;;
41721;SDS011;27407;24.142;-110.310;2024-03-02T07:55:35;13.27;;;2.13;;
41721;SDS011;27407;24.142;-110.310;2024-03-02T07:58:02;7.73;;;1.07;;
41721;SDS011;27407;24.142;-110.310;2024-03-02T08:00:29;3.77;;;0.80;;
41721;SDS011;27407;24.142;-110.310;2024-03-02T08:02:56;11.37;;;1.10;;
41721;SDS011;27407;24.142;-110.310;2024-03-02T08:05:24;6.17;;;0.93;;
41721;SDS011;27407;24.142;-110.310;2024-03-02T08:07:51;4.13;;;0.60;;
41721;SDS011;27407;24.142;-110.310;2024-03-02T08:10:18;5.60;;;0.73;;
41721;SDS011;27407;24.142;-110.310;2024-03-02T08:12:45;3.97;;;1.33;;
41721;SDS011;27407;24.142;-110.310;2024-03-02T08:15:11;3.60;;;1.20;;
41721;SDS011;27407;24.142;-110.310;2024-03-02T08:17:39;4.67;;;0.50;;
41721;SDS011;27407;24.142;-110.310;2024-03-02T08:20:13;3.27;;;0.60;;
41721;SDS011;27407;24.142;-110.310;2024-03-02T08:22:40;2.97;;;0.50;;
41721;SDS011;27407;24.142;-110.310;2024-03-02T08:25:07;5.20;;;0.50;;
41721;SDS011;27407;24.142;-110.310;2024-03-02T08:27:35;2.50;;;0.53;;
41721;SDS011;27407;24.142;-110.310;2024-03-02T08:30:05;2.87;;;0.57;;
41721;SDS011;27407;24.142;-110.310;2024-03-02T08:32:33;11.73;;;0.83;;
41721;SDS011;27407;24.142;-110.310;2024-03-02T08:35:00;6.70;;;0.63;;
41721;SDS011;27407;24.142;-110.310;2024-03-02T08:37:27;11.93;;;0.93;;
41721;SDS011;27407;24.142;-110.310;2024-03-02T08:39:54;3.73;;;0.50;;
41721;SDS011;27407;24.142;-110.310;2024-03-02T08:42:21;5.53;;;0.70;;
41721;SDS011;27407;24.142;-110.310;2024-03-02T08:44:48;3.30;;;0.63;;
41721;SDS011;27407;24.142;-110.310;2024-03-02T08:47:15;2.37;;;0.70;;
41721;SDS011;27407;24.142;-110.310;2024-03-02T08:49:42;3.43;;;0.37;;
41721;SDS011;27407;24.142;-110.310;2024-03-02T08:52:09;2.80;;;0.57;;
41721;SDS011;27407;24.142;-110.310;2024-03-02T08:54:36;2.73;;;0.60;;
41721;SDS011;27407;24.142;-110.310;2024-03-02T08:57:03;3.43;;;0.80;;
41721;SDS011;27407;24.142;-110.310;2024-03-02T08:59:30;2.33;;;0.50;;
41721;SDS011;27407;24.142;-110.310;2024-03-02T09:01:57;2.67;;;0.47;;
41721;SDS011;27407;24.142;-110.310;2024-03-02T09:04:24;3.60;;;0.50;;
41721;SDS011;27407;24.142;-110.310;2024-03-02T09:06:51;3.10;;;0.70;;
41721;SDS011;27407;24.142;-110.310;2024-03-02T09:09:18;1.70;;;0.50;;
41721;SDS011;27407;24.142;-110.310;2024-03-02T09:11:45;6.43;;;0.60;;
41721;SDS011;27407;24.142;-110.310;2024-03-02T09:14:12;4.23;;;0.40;;
41721;SDS011;27407;24.142;-110.310;2024-03-02T09:16:40;1.03;;;0.53;;
41721;SDS011;27407;24.142;-110.310;2024-03-02T09:19:07;11.60;;;1.17;;
41721;SDS011;27407;24.142;-110.310;2024-03-02T09:21:34;16.00;;;1.23;;
41721;SDS011;27407;24.142;-110.310;2024-03-02T09:24:01;13.43;;;1.07;;
41721;SDS011;27407;24.142;-110.310;2024-03-02T09:26:29;11.27;;;1.60;;
41721;SDS011;27407;24.142;-110.310;2024-03-02T09:28:55;12.50;;;1.97;;
41721;SDS011;27407;24.142;-110.310;2024-03-02T09:31:22;21.30;;;1.90;;
41721;SDS011;27407;24.142;-110.310;2024-03-02T09:33:49;9.07;;;1.67;;
41721;SDS011;27407;24.142;-110.310;2024-03-02T09:36:21;12.67;;;1.87;;
41721;SDS011;27407;24.142;-110.310;2024-03-02T09:38:48;14.67;;;1.73;;
41721;SDS011;27407;24.142;-110.310;2024-03-02T09:41:15;25.57;;;2.93;;
41721;SDS011;27407;24.142;-110.310;2024-03-02T09:43:42;30.00;;;2.40;;
41721;SDS011;27407;24.142;-110.310;2024-03-02T09:46:09;39.07;;;3.67;;
41721;SDS011;27407;24.142;-110.310;2024-03-02T09:48:36;31.53;;;4.27;;
41721;SDS011;27407;24.142;-110.310;2024-03-02T09:51:04;33.13;;;4.03;;
41721;SDS011;27407;24.142;-110.310;2024-03-02T09:53:31;33.10;;;4.23;;
41721;SDS011;27407;24.142;-110.310;2024-03-02T09:55:59;21.73;;;3.00;;
41721;SDS011;27407;24.142;-110.310;2024-03-02T09:58:26;29.47;;;3.13;;
41721;SDS011;27407;24.142;-110.310;2024-03-02T10:00:53;28.83;;;2.53;;
41721;SDS011;27407;24.142;-110.310;2024-03-02T10:03:20;21.50;;;3.07;;
41721;SDS011;27407;24.142;-110.310;2024-03-02T10:05:52;18.93;;;2.47;;
41721;SDS011;27407;24.142;-110.310;2024-03-02T10:08:19;15.40;;;2.37;;
41721;SDS011;27407;24.142;-110.310;2024-03-02T10:10:45;24.83;;;2.87;;
41721;SDS011;27407;24.142;-110.310;2024-03-02T10:13:12;38.07;;;2.63;;
41721;SDS011;27407;24.142;-110.310;2024-03-02T10:15:40;16.90;;;2.90;;
41721;SDS011;27407;24.142;-110.310;2024-03-02T10:18:10;25.60;;;3.40;;
41721;SDS011;27407;24.142;-110.310;2024-03-02T10:20:38;45.40;;;4.93;;
41721;SDS011;27407;24.142;-110.310;2024-03-02T10:23:12;46.87;;;3.83;;
41721;SDS011;27407;24.142;-110.310;2024-03-02T10:25:41;30.47;;;2.53;;
41721;SDS011;27407;24.142;-110.310;2024-03-02T10:28:09;32.87;;;3.43;;
41721;SDS011;27407;24.142;-110.310;2024-03-02T10:30:36;20.77;;;2.60;;
41721;SDS011;27407;24.142;-110.310;2024-03-02T10:33:03;26.17;;;3.10;;
41721;SDS011;27407;24.142;-110.310;2024-03-02T10:35:32;33.03;;;3.77;;
41721;SDS011;27407;24.142;-110.310;2024-03-02T10:38:03;30.93;;;3.17;;
41721;SDS011;27407;24.142;-110.310;2024-03-02T10:40:31;33.10;;;3.37;;
41721;SDS011;27407;24.142;-110.310;2024-03-02T10:42:59;30.37;;;3.90;;
41721;SDS011;27407;24.142;-110.310;2024-03-02T10:45:28;25.97;;;3.47;;
41721;SDS011;27407;24.142;-110.310;2024-03-02T10:47:56;23.77;;;3.40;;
41721;SDS011;27407;24.142;-110.310;2024-03-02T10:50:24;16.37;;;3.13;;
41721;SDS011;27407;24.142;-110.310;2024-03-02T10:52:51;26.37;;;3.07;;
41721;SDS011;27407;24.142;-110.310;2024-03-02T10:55:17;15.60;;;3.07;;
41721;SDS011;27407;24.142;-110.310;2024-03-02T11:00:19;26.00;;;3.80;;
41721;SDS011;27407;24.142;-110.310;2024-03-02T11:02:54;21.83;;;3.27;;
41721;SDS011;27407;24.142;-110.310;2024-03-02T11:05:26;28.90;;;3.70;;
41721;SDS011;27407;24.142;-110.310;2024-03-02T11:07:56;11.13;;;2.77;;
41721;SDS011;27407;24.142;-110.310;2024-03-02T11:10:48;18.97;;;3.23;;
41721;SDS011;27407;24.142;-110.310;2024-03-02T11:13:20;18.77;;;3.10;;
41721;SDS011;27407;24.142;-110.310;2024-03-02T11:15:52;23.03;;;3.10;;
41721;SDS011;27407;24.142;-110.310;2024-03-02T11:18:22;28.93;;;3.10;;
41721;SDS011;27407;24.142;-110.310;2024-03-02T11:20:49;21.63;;;3.13;;
41721;SDS011;27407;24.142;-110.310;2024-03-02T11:23:16;17.47;;;2.53;;
41721;SDS011;27407;24.142;-110.310;2024-03-02T11:25:43;11.57;;;2.67;;
41721;SDS011;27407;24.142;-110.310;2024-03-02T11:28:09;16.10;;;2.97;;
41721;SDS011;27407;24.142;-110.310;2024-03-02T11:33:03;47.07;;;4.93;;
41721;SDS011;27407;24.142;-110.310;2024-03-02T11:35:37;31.83;;;4.57;;
41721;SDS011;27407;24.142;-110.310;2024-03-02T11:38:14;34.13;;;4.43;;
41721;SDS011;27407;24.142;-110.310;2024-03-02T11:40:41;25.50;;;3.30;;
41721;SDS011;27407;24.142;-110.310;2024-03-02T11:43:08;40.90;;;4.87;;
41721;SDS011;27407;24.142;-110.310;2024-03-02T11:45:35;34.43;;;3.63;;
41721;SDS011;27407;24.142;-110.310;2024-03-02T11:48:08;26.60;;;4.60;;
41721;SDS011;27407;24.142;-110.310;2024-03-02T11:50:47;27.87;;;4.07;;
41721;SDS011;27407;24.142;-110.310;2024-03-02T11:53:16;21.57;;;3.60;;
41721;SDS011;27407;24.142;-110.310;2024-03-02T11:55:43;27.93;;;3.20;;
41721;SDS011;27407;24.142;-110.310;2024-03-02T11:58:12;24.70;;;2.27;;
41721;SDS011;27407;24.142;-110.310;2024-03-02T12:00:39;26.83;;;2.83;;
41721;SDS011;27407;24.142;-110.310;2024-03-02T12:05:34;14.90;;;2.33;;
41721;SDS011;27407;24.142;-110.310;2024-03-02T12:08:02;16.17;;;2.17;;
41721;SDS011;27407;24.142;-110.310;2024-03-02T12:10:30;6.03;;;1.77;;
41721;SDS011;27407;24.142;-110.310;2024-03-02T12:15:26;21.13;;;3.07;;
41721;SDS011;27407;24.142;-110.310;2024-03-02T12:17:58;19.23;;;2.63;;
41721;SDS011;27407;24.142;-110.310;2024-03-02T12:20:26;21.87;;;2.57;;
41721;SDS011;27407;24.142;-110.310;2024-03-02T12:22:55;10.97;;;1.70;;
41721;SDS011;27407;24.142;-110.310;2024-03-02T12:25:24;9.17;;;1.37;;
41721;SDS011;27407;24.142;-110.310;2024-03-02T12:27:52;9.63;;;1.50;;
41721;SDS011;27407;24.142;-110.310;2024-03-02T12:30:22;14.83;;;1.80;;
41721;SDS011;27407;24.142;-110.310;2024-03-02T12:32:49;6.63;;;1.50;;
41721;SDS011;27407;24.142;-110.310;2024-03-02T12:35:17;28.83;;;2.50;;
41721;SDS011;27407;24.142;-110.310;2024-03-02T12:37:44;15.53;;;2.50;;
41721;SDS011;27407;24.142;-110.310;2024-03-02T12:40:12;19.33;;;2.13;;
41721;SDS011;27407;24.142;-110.310;2024-03-02T12:42:40;20.50;;;1.50;;
41721;SDS011;27407;24.142;-110.310;2024-03-02T12:45:07;8.57;;;0.93;;
41721;SDS011;27407;24.142;-110.310;2024-03-02T12:47:34;11.63;;;0.93;;
41721;SDS011;27407;24.142;-110.310;2024-03-02T12:50:02;8.50;;;1.10;;
41721;SDS011;27407;24.142;-110.310;2024-03-02T12:52:30;7.73;;;1.07;;
41721;SDS011;27407;24.142;-110.310;2024-03-02T12:55:00;11.67;;;1.07;;
41721;SDS011;27407;24.142;-110.310;2024-03-02T12:57:29;10.50;;;1.43;;
41721;SDS011;27407;24.142;-110.310;2024-03-02T12:59:59;16.57;;;2.10;;
41721;SDS011;27407;24.142;-110.310;2024-03-02T13:02:39;50.23;;;17.17;;
41721;SDS011;27407;24.142;-110.310;2024-03-02T13:05:06;147.30;;;25.20;;
41721;SDS011;27407;24.142;-110.310;2024-03-02T13:07:37;77.27;;;15.13;;
41721;SDS011;27407;24.142;-110.310;2024-03-02T13:10:04;21.47;;;3.73;;
41721;SDS011;27407;24.142;-110.310;2024-03-02T13:12:35;28.00;;;4.47;;
41721;SDS011;27407;24.142;-110.310;2024-03-02T13:15:02;36.30;;;9.17;;
41721;SDS011;27407;24.142;-110.310;2024-03-02T13:17:30;29.67;;;7.77;;
41721;SDS011;27407;24.142;-110.310;2024-03-02T13:19:59;79.17;;;13.33;;
41721;SDS011;27407;24.142;-110.310;2024-03-02T13:22:26;89.83;;;12.47;;
41721;SDS011;27407;24.142;-110.310;2024-03-02T13:24:53;109.60;;;13.80;;
41721;SDS011;27407;24.142;-110.310;2024-03-02T13:27:20;45.57;;;8.27;;
41721;SDS011;27407;24.142;-110.310;2024-03-02T13:29:47;55.30;;;7.90;;
41721;SDS011;27407;24.142;-110.310;2024-03-02T13:32:14;71.07;;;8.07;;
41721;SDS011;27407;24.142;-110.310;2024-03-02T13:34:41;49.70;;;7.30;;
41721;SDS011;27407;24.142;-110.310;2024-03-02T13:37:08;70.10;;;6.57;;
41721;SDS011;27407;24.142;-110.310;2024-03-02T13:39:35;77.57;;;6.77;;
41721;SDS011;27407;24.142;-110.310;2024-03-02T13:42:11;42.87;;;6.03;;
41721;SDS011;27407;24.142;-110.310;2024-03-02T13:44:39;76.77;;;6.63;;
41721;SDS011;27407;24.142;-110.310;2024-03-02T13:47:09;115.33;;;11.73;;
41721;SDS011;27407;24.142;-110.310;2024-03-02T13:49:36;127.50;;;8.83;;
41721;SDS011;27407;24.142;-110.310;2024-03-02T13:52:05;63.70;;;5.57;;
41721;SDS011;27407;24.142;-110.310;2024-03-02T13:54:42;42.30;;;3.83;;
41721;SDS011;27407;24.142;-110.310;2024-03-02T13:57:10;37.07;;;3.30;;
41721;SDS011;27407;24.142;-110.310;2024-03-02T13:59:38;68.23;;;5.77;;
41721;SDS011;27407;24.142;-110.310;2024-03-02T14:02:05;42.87;;;3.60;;
41721;SDS011;27407;24.142;-110.310;2024-03-02T14:04:36;40.40;;;3.33;;
41721;SDS011;27407;24.142;-110.310;2024-03-02T14:07:04;59.20;;;4.40;;
41721;SDS011;27407;24.142;-110.310;2024-03-02T14:09:34;54.60;;;4.73;;
41721;SDS011;27407;24.142;-110.310;2024-03-02T14:12:01;65.63;;;6.00;;
41721;SDS011;27407;24.142;-110.310;2024-03-02T14:14:28;114.03;;;8.27;;
41721;SDS011;27407;24.142;-110.310;2024-03-02T14:16:55;97.33;;;8.80;;
41721;SDS011;27407;24.142;-110.310;2024-03-02T14:19:25;108.73;;;7.67;;
41721;SDS011;27407;24.142;-110.310;2024-03-02T14:21:52;86.20;;;5.87;;